sensor_id;sensor_type;location;lat;lon;timestamp;P1;durP1;ratioP1;P2;durP2;ratioP2
50363;SDS011;36272;59.400;17.982;2023-04-15T00:01:47;27.02;;;6.43;;
50363;SDS011;36272;59.400;17.982;2023-04-15T00:06:49;16.20;;;5.50;;
50363;SDS011;36272;59.400;17.982;2023-04-15T00:11:53;17.65;;;5.90;;
50363;SDS011;36272;59.400;17.982;2023-04-15T00:16:55;17.55;;;5.43;;
50363;SDS011;36272;59.400;17.982;2023-04-15T00:21:57;27.08;;;7.05;;
50363;SDS011;36272;59.400;17.982;2023-04-15T00:27:00;30.42;;;7.13;;
50363;SDS011;36272;59.400;17.982;2023-04-15T00:32:01;25.02;;;6.82;;
50363;SDS011;36272;59.400;17.982;2023-04-15T00:37:03;20.50;;;5.97;;
50363;SDS011;36272;59.400;17.982;2023-04-15T00:42:05;25.45;;;6.97;;
50363;SDS011;36272;59.400;17.982;2023-04-15T00:47:07;28.13;;;7.10;;
50363;SDS011;36272;59.400;17.982;2023-04-15T00:52:09;37.97;;;6.57;;
50363;SDS011;36272;59.400;17.982;2023-04-15T00:57:11;22.95;;;6.70;;
50363;SDS011;36272;59.400;17.982;2023-04-15T01:02:13;23.23;;;6.30;;
50363;SDS011;36272;59.400;17.982;2023-04-15T01:07:15;25.50;;;6.63;;
50363;SDS011;36272;59.400;17.982;2023-04-15T01:12:18;15.75;;;5.82;;
50363;SDS011;36272;59.400;17.982;2023-04-15T01:17:20;17.88;;;5.80;;
50363;SDS011;36272;59.400;17.982;2023-04-15T01:22:23;21.85;;;6.40;;
50363;SDS011;36272;59.400;17.982;2023-04-15T01:27:26;19.25;;;5.95;;
50363;SDS011;36272;59.400;17.982;2023-04-15T01:32:28;34.97;;;6.18;;
50363;SDS011;36272;59.400;17.982;2023-04-15T01:37:31;20.48;;;6.80;;
50363;SDS011;36272;59.400;17.982;2023-04-15T01:42:34;15.57;;;5.93;;
50363;SDS011;36272;59.400;17.982;2023-04-15T01:47:36;21.60;;;6.00;;
50363;SDS011;36272;59.400;17.982;2023-04-15T01:52:38;16.17;;;5.75;;
50363;SDS011;36272;59.400;17.982;2023-04-15T01:57:40;20.02;;;6.78;;
50363;SDS011;36272;59.400;17.982;2023-04-15T02:02:42;18.60;;;5.80;;
50363;SDS011;36272;59.400;17.982;2023-04-15T02:07:44;18.50;;;6.03;;
50363;SDS011;36272;59.400;17.982;2023-04-15T02:12:46;21.73;;;6.40;;
50363;SDS011;36272;59.400;17.982;2023-04-15T02:17:48;23.25;;;6.95;;
50363;SDS011;36272;59.400;17.982;2023-04-15T02:22:52;26.98;;;7.18;;
50363;SDS011;36272;59.400;17.982;2023-04-15T02:27:56;17.85;;;5.63;;
50363;SDS011;36272;59.400;17.982;2023-04-15T02:32:58;20.70;;;5.85;;
50363;SDS011;36272;59.400;17.982;2023-04-15T02:38:01;22.67;;;6.50;;
50363;SDS011;36272;59.400;17.982;2023-04-15T02:43:08;18.50;;;6.32;;
50363;SDS011;36272;59.400;17.982;2023-04-15T02:48:09;17.27;;;5.72;;
50363;SDS011;36272;59.400;17.982;2023-04-15T02:53:11;15.23;;;5.57;;
50363;SDS011;36272;59.400;17.982;2023-04-15T02:58:14;17.83;;;6.28;;
50363;SDS011;36272;59.400;17.982;2023-04-15T03:03:16;23.25;;;6.03;;
50363;SDS011;36272;59.400;17.982;2023-04-15T03:08:18;22.52;;;6.63;;
50363;SDS011;36272;59.400;17.982;2023-04-15T03:13:20;13.77;;;5.60;;
50363;SDS011;36272;59.400;17.982;2023-04-15T03:18:22;19.88;;;6.05;;
50363;SDS011;36272;59.400;17.982;2023-04-15T03:23:24;16.33;;;5.65;;
50363;SDS011;36272;59.400;17.982;2023-04-15T03:28:26;17.27;;;5.07;;
50363;SDS011;36272;59.400;17.982;2023-04-15T03:33:27;17.50;;;5.50;;
50363;SDS011;36272;59.400;17.982;2023-04-15T03:38:29;13.60;;;5.40;;
50363;SDS011;36272;59.400;17.982;2023-04-15T03:43:31;13.43;;;5.43;;
50363;SDS011;36272;59.400;17.982;2023-04-15T03:48:38;16.05;;;5.85;;
50363;SDS011;36272;59.400;17.982;2023-04-15T03:53:40;18.33;;;5.70;;
50363;SDS011;36272;59.400;17.982;2023-04-15T03:58:42;20.55;;;6.25;;
50363;SDS011;36272;59.400;17.982;2023-04-15T04:03:43;20.83;;;5.85;;
50363;SDS011;36272;59.400;17.982;2023-04-15T04:08:45;16.63;;;5.30;;
50363;SDS011;36272;59.400;17.982;2023-04-15T04:13:47;18.42;;;5.57;;
50363;SDS011;36272;59.400;17.982;2023-04-15T04:18:48;16.45;;;5.85;;
50363;SDS011;36272;59.400;17.982;2023-04-15T04:23:50;16.33;;;6.00;;
50363;SDS011;36272;59.400;17.982;2023-04-15T04:28:52;17.90;;;5.35;;
50363;SDS011;36272;59.400;17.982;2023-04-15T04:33:53;10.75;;;4.43;;
50363;SDS011;36272;59.400;17.982;2023-04-15T04:38:55;19.77;;;5.95;;
50363;SDS011;36272;59.400;17.982;2023-04-15T04:43:57;18.83;;;5.40;;
50363;SDS011;36272;59.400;17.982;2023-04-15T04:48:59;16.27;;;5.28;;
50363;SDS011;36272;59.400;17.982;2023-04-15T04:54:00;16.63;;;5.25;;
50363;SDS011;36272;59.400;17.982;2023-04-15T04:59:02;13.10;;;5.53;;
50363;SDS011;36272;59.400;17.982;2023-04-15T05:04:04;13.45;;;4.78;;
50363;SDS011;36272;59.400;17.982;2023-04-15T05:09:07;16.23;;;5.43;;
50363;SDS011;36272;59.400;17.982;2023-04-15T05:14:08;17.52;;;5.20;;
50363;SDS011;36272;59.400;17.982;2023-04-15T05:19:10;20.00;;;5.72;;
50363;SDS011;36272;59.400;17.982;2023-04-15T05:24:12;18.63;;;4.80;;
50363;SDS011;36272;59.400;17.982;2023-04-15T05:29:18;13.13;;;4.82;;
50363;SDS011;36272;59.400;17.982;2023-04-15T05:34:20;16.80;;;5.20;;
50363;SDS011;36272;59.400;17.982;2023-04-15T05:39:26;14.55;;;5.15;;
50363;SDS011;36272;59.400;17.982;2023-04-15T05:44:28;16.08;;;5.43;;
50363;SDS011;36272;59.400;17.982;2023-04-15T05:49:30;13.18;;;4.88;;
50363;SDS011;36272;59.400;17.982;2023-04-15T05:54:32;13.88;;;5.35;;
50363;SDS011;36272;59.400;17.982;2023-04-15T05:59:34;14.25;;;4.90;;
50363;SDS011;36272;59.400;17.982;2023-04-15T06:04:35;16.13;;;5.05;;
50363;SDS011;36272;59.400;17.982;2023-04-15T06:09:37;14.73;;;5.15;;
50363;SDS011;36272;59.400;17.982;2023-04-15T06:14:38;15.75;;;5.13;;
50363;SDS011;36272;59.400;17.982;2023-04-15T06:19:40;20.70;;;5.28;;
50363;SDS011;36272;59.400;17.982;2023-04-15T06:24:42;23.08;;;5.70;;
50363;SDS011;36272;59.400;17.982;2023-04-15T06:29:49;12.05;;;4.82;;
50363;SDS011;36272;59.400;17.982;2023-04-15T06:34:51;11.50;;;4.68;;
50363;SDS011;36272;59.400;17.982;2023-04-15T06:39:52;14.10;;;5.15;;
50363;SDS011;36272;59.400;17.982;2023-04-15T06:44:54;13.70;;;5.43;;
50363;SDS011;36272;59.400;17.982;2023-04-15T06:50:10;15.27;;;5.22;;
50363;SDS011;36272;59.400;17.982;2023-04-15T06:55:12;16.67;;;5.47;;
50363;SDS011;36272;59.400;17.982;2023-04-15T07:00:15;14.82;;;4.93;;
50363;SDS011;36272;59.400;17.982;2023-04-15T07:05:16;21.23;;;5.10;;
50363;SDS011;36272;59.400;17.982;2023-04-15T07:10:19;15.45;;;5.13;;
50363;SDS011;36272;59.400;17.982;2023-04-15T07:15:21;11.73;;;4.38;;
50363;SDS011;36272;59.400;17.982;2023-04-15T07:20:23;18.27;;;5.00;;
50363;SDS011;36272;59.400;17.982;2023-04-15T07:25:25;7.55;;;4.13;;
50363;SDS011;36272;59.400;17.982;2023-04-15T07:30:27;12.13;;;5.00;;
50363;SDS011;36272;59.400;17.982;2023-04-15T07:35:29;9.85;;;4.03;;
50363;SDS011;36272;59.400;17.982;2023-04-15T07:40:31;12.10;;;4.53;;
50363;SDS011;36272;59.400;17.982;2023-04-15T07:45:33;15.57;;;4.18;;
50363;SDS011;36272;59.400;17.982;2023-04-15T07:50:35;12.38;;;4.75;;
50363;SDS011;36272;59.400;17.982;2023-04-15T07:55:37;14.45;;;4.63;;
50363;SDS011;36272;59.400;17.982;2023-04-15T08:00:39;19.08;;;4.60;;
50363;SDS011;36272;59.400;17.982;2023-04-15T08:05:41;15.43;;;4.82;;
50363;SDS011;36272;59.400;17.982;2023-04-15T08:10:42;11.63;;;4.20;;
50363;SDS011;36272;59.400;17.982;2023-04-15T08:15:44;11.90;;;4.45;;
50363;SDS011;36272;59.400;17.982;2023-04-15T08:20:46;13.30;;;3.47;;
50363;SDS011;36272;59.400;17.982;2023-04-15T08:25:47;9.10;;;3.80;;
50363;SDS011;36272;59.400;17.982;2023-04-15T08:30:49;18.98;;;5.07;;
50363;SDS011;36272;59.400;17.982;2023-04-15T08:35:53;13.68;;;4.45;;
50363;SDS011;36272;59.400;17.982;2023-04-15T08:40:54;11.23;;;3.90;;
50363;SDS011;36272;59.400;17.982;2023-04-15T08:45:58;18.05;;;4.90;;
50363;SDS011;36272;59.400;17.982;2023-04-15T08:51:02;21.63;;;4.82;;
50363;SDS011;36272;59.400;17.982;2023-04-15T08:56:04;13.38;;;4.60;;
50363;SDS011;36272;59.400;17.982;2023-04-15T09:06:17;14.80;;;4.85;;
50363;SDS011;36272;59.400;17.982;2023-04-15T09:11:20;11.60;;;4.80;;
50363;SDS011;36272;59.400;17.982;2023-04-15T09:16:22;20.20;;;5.30;;
50363;SDS011;36272;59.400;17.982;2023-04-15T09:21:24;8.18;;;4.03;;
50363;SDS011;36272;59.400;17.982;2023-04-15T09:26:33;13.90;;;4.10;;
50363;SDS011;36272;59.400;17.982;2023-04-15T09:31:38;39.83;;;5.43;;
50363;SDS011;36272;59.400;17.982;2023-04-15T09:42:06;15.55;;;4.88;;
50363;SDS011;36272;59.400;17.982;2023-04-15T09:47:08;27.25;;;5.55;;
50363;SDS011;36272;59.400;17.982;2023-04-15T09:52:12;10.60;;;4.45;;
50363;SDS011;36272;59.400;17.982;2023-04-15T09:57:14;13.63;;;4.78;;
50363;SDS011;36272;59.400;17.982;2023-04-15T10:02:17;13.13;;;4.40;;
50363;SDS011;36272;59.400;17.982;2023-04-15T10:07:20;9.20;;;4.70;;
50363;SDS011;36272;59.400;17.982;2023-04-15T10:12:23;11.00;;;4.55;;
50363;SDS011;36272;59.400;17.982;2023-04-15T10:17:26;9.85;;;4.38;;
50363;SDS011;36272;59.400;17.982;2023-04-15T10:22:33;14.57;;;4.97;;
50363;SDS011;36272;59.400;17.982;2023-04-15T10:27:37;11.73;;;4.95;;
50363;SDS011;36272;59.400;17.982;2023-04-15T10:32:40;11.20;;;4.85;;
50363;SDS011;36272;59.400;17.982;2023-04-15T10:37:43;12.88;;;4.68;;
50363;SDS011;36272;59.400;17.982;2023-04-15T10:42:44;15.57;;;4.90;;
50363;SDS011;36272;59.400;17.982;2023-04-15T10:47:50;11.52;;;4.82;;
50363;SDS011;36272;59.400;17.982;2023-04-15T10:52:55;16.48;;;4.88;;
50363;SDS011;36272;59.400;17.982;2023-04-15T10:57:58;9.95;;;4.78;;
50363;SDS011;36272;59.400;17.982;2023-04-15T11:08:05;10.90;;;3.92;;
50363;SDS011;36272;59.400;17.982;2023-04-15T11:13:15;11.25;;;4.10;;
50363;SDS011;36272;59.400;17.982;2023-04-15T11:18:25;13.18;;;4.85;;
50363;SDS011;36272;59.400;17.982;2023-04-15T11:23:38;10.90;;;4.22;;
50363;SDS011;36272;59.400;17.982;2023-04-15T11:28:44;6.78;;;3.97;;
50363;SDS011;36272;59.400;17.982;2023-04-15T11:38:56;26.20;;;4.57;;
50363;SDS011;36272;59.400;17.982;2023-04-15T11:43:59;10.30;;;3.60;;
50363;SDS011;36272;59.400;17.982;2023-04-15T11:49:00;8.48;;;3.83;;
50363;SDS011;36272;59.400;17.982;2023-04-15T11:54:04;14.40;;;4.37;;
50363;SDS011;36272;59.400;17.982;2023-04-15T11:59:06;11.45;;;3.70;;
50363;SDS011;36272;59.400;17.982;2023-04-15T12:04:11;12.38;;;3.70;;
50363;SDS011;36272;59.400;17.982;2023-04-15T12:09:15;11.73;;;3.85;;
50363;SDS011;36272;59.400;17.982;2023-04-15T12:14:30;9.07;;;4.00;;
50363;SDS011;36272;59.400;17.982;2023-04-15T12:19:36;8.60;;;3.97;;
50363;SDS011;36272;59.400;17.982;2023-04-15T12:24:39;13.57;;;3.88;;
50363;SDS011;36272;59.400;17.982;2023-04-15T12:29:44;89.90;;;6.80;;
50363;SDS011;36272;59.400;17.982;2023-04-15T12:34:49;7.90;;;3.45;;
50363;SDS011;36272;59.400;17.982;2023-04-15T12:39:52;7.35;;;3.67;;
50363;SDS011;36272;59.400;17.982;2023-04-15T12:44:54;6.00;;;3.42;;
50363;SDS011;36272;59.400;17.982;2023-04-15T12:49:56;8.77;;;3.35;;
50363;SDS011;36272;59.400;17.982;2023-04-15T12:54:57;7.93;;;3.42;;
50363;SDS011;36272;59.400;17.982;2023-04-15T13:00:00;8.75;;;3.63;;
50363;SDS011;36272;59.400;17.982;2023-04-15T13:05:02;9.30;;;3.08;;
50363;SDS011;36272;59.400;17.982;2023-04-15T13:10:04;11.52;;;3.15;;
50363;SDS011;36272;59.400;17.982;2023-04-15T13:15:06;7.53;;;3.42;;
50363;SDS011;36272;59.400;17.982;2023-04-15T13:20:10;10.82;;;3.72;;
50363;SDS011;36272;59.400;17.982;2023-04-15T13:25:12;9.93;;;4.35;;
50363;SDS011;36272;59.400;17.982;2023-04-15T13:30:14;6.65;;;3.72;;
50363;SDS011;36272;59.400;17.982;2023-04-15T13:35:15;6.68;;;3.72;;
50363;SDS011;36272;59.400;17.982;2023-04-15T13:40:18;6.40;;;3.47;;
50363;SDS011;36272;59.400;17.982;2023-04-15T13:45:20;9.18;;;3.38;;
50363;SDS011;36272;59.400;17.982;2023-04-15T13:50:22;12.75;;;3.55;;
50363;SDS011;36272;59.400;17.982;2023-04-15T13:55:24;9.95;;;3.00;;
50363;SDS011;36272;59.400;17.982;2023-04-15T14:00:26;8.68;;;3.40;;
50363;SDS011;36272;59.400;17.982;2023-04-15T14:05:27;6.75;;;3.35;;
50363;SDS011;36272;59.400;17.982;2023-04-15T14:10:29;8.38;;;2.70;;
50363;SDS011;36272;59.400;17.982;2023-04-15T14:15:31;7.93;;;3.00;;
50363;SDS011;36272;59.400;17.982;2023-04-15T14:20:32;11.35;;;3.30;;
50363;SDS011;36272;59.400;17.982;2023-04-15T14:25:34;40.83;;;6.00;;
50363;SDS011;36272;59.400;17.982;2023-04-15T14:30:36;10.40;;;3.75;;
50363;SDS011;36272;59.400;17.982;2023-04-15T14:35:37;10.90;;;3.67;;
50363;SDS011;36272;59.400;17.982;2023-04-15T14:40:39;8.18;;;3.45;;
50363;SDS011;36272;59.400;17.982;2023-04-15T14:45:41;7.78;;;3.50;;
50363;SDS011;36272;59.400;17.982;2023-04-15T14:50:43;8.05;;;3.42;;
50363;SDS011;36272;59.400;17.982;2023-04-15T14:55:45;6.13;;;3.33;;
50363;SDS011;36272;59.400;17.982;2023-04-15T15:00:46;7.50;;;3.20;;
50363;SDS011;36272;59.400;17.982;2023-04-15T15:05:48;15.80;;;3.60;;
50363;SDS011;36272;59.400;17.982;2023-04-15T15:10:50;7.95;;;3.00;;
50363;SDS011;36272;59.400;17.982;2023-04-15T15:15:51;20.98;;;3.95;;
50363;SDS011;36272;59.400;17.982;2023-04-15T15:20:53;6.40;;;3.15;;
50363;SDS011;36272;59.400;17.982;2023-04-15T15:25:54;6.28;;;3.28;;
50363;SDS011;36272;59.400;17.982;2023-04-15T15:30:58;8.15;;;3.33;;
50363;SDS011;36272;59.400;17.982;2023-04-15T15:35:59;7.15;;;3.22;;
50363;SDS011;36272;59.400;17.982;2023-04-15T15:41:01;8.57;;;3.60;;
50363;SDS011;36272;59.400;17.982;2023-04-15T15:46:03;8.60;;;3.85;;
50363;SDS011;36272;59.400;17.982;2023-04-15T15:51:04;9.13;;;3.72;;
50363;SDS011;36272;59.400;17.982;2023-04-15T15:56:06;13.73;;;3.97;;
50363;SDS011;36272;59.400;17.982;2023-04-15T16:01:08;7.47;;;3.25;;
50363;SDS011;36272;59.400;17.982;2023-04-15T16:06:09;8.23;;;4.22;;
50363;SDS011;36272;59.400;17.982;2023-04-15T16:11:11;9.40;;;5.75;;
50363;SDS011;36272;59.400;17.982;2023-04-15T16:16:13;15.55;;;3.85;;
50363;SDS011;36272;59.400;17.982;2023-04-15T16:21:15;8.82;;;3.92;;
50363;SDS011;36272;59.400;17.982;2023-04-15T16:26:16;11.77;;;3.97;;
50363;SDS011;36272;59.400;17.982;2023-04-15T16:31:18;12.43;;;4.10;;
50363;SDS011;36272;59.400;17.982;2023-04-15T16:36:20;9.00;;;3.65;;
50363;SDS011;36272;59.400;17.982;2023-04-15T16:41:21;7.30;;;3.33;;
50363;SDS011;36272;59.400;17.982;2023-04-15T16:46:23;6.97;;;3.40;;
50363;SDS011;36272;59.400;17.982;2023-04-15T16:51:25;8.40;;;3.63;;
50363;SDS011;36272;59.400;17.982;2023-04-15T16:56:30;11.40;;;3.70;;
50363;SDS011;36272;59.400;17.982;2023-04-15T17:01:32;8.85;;;3.95;;
50363;SDS011;36272;59.400;17.982;2023-04-15T17:06:33;5.32;;;2.75;;
50363;SDS011;36272;59.400;17.982;2023-04-15T17:11:35;16.10;;;3.72;;
50363;SDS011;36272;59.400;17.982;2023-04-15T17:16:40;10.97;;;4.00;;
50363;SDS011;36272;59.400;17.982;2023-04-15T17:21:43;11.13;;;4.07;;
50363;SDS011;36272;59.400;17.982;2023-04-15T17:26:44;14.38;;;4.20;;
50363;SDS011;36272;59.400;17.982;2023-04-15T17:31:47;12.95;;;4.35;;
50363;SDS011;36272;59.400;17.982;2023-04-15T17:36:49;8.15;;;3.95;;
50363;SDS011;36272;59.400;17.982;2023-04-15T17:41:51;13.50;;;4.22;;
50363;SDS011;36272;59.400;17.982;2023-04-15T17:46:53;12.68;;;4.43;;
50363;SDS011;36272;59.400;17.982;2023-04-15T17:51:55;9.02;;;3.88;;
50363;SDS011;36272;59.400;17.982;2023-04-15T17:56:56;14.70;;;4.55;;
50363;SDS011;36272;59.400;17.982;2023-04-15T18:01:59;8.75;;;4.00;;
50363;SDS011;36272;59.400;17.982;2023-04-15T18:07:01;10.18;;;3.50;;
50363;SDS011;36272;59.400;17.982;2023-04-15T18:12:03;11.13;;;4.47;;
50363;SDS011;36272;59.400;17.982;2023-04-15T18:17:04;13.05;;;3.83;;
50363;SDS011;36272;59.400;17.982;2023-04-15T18:22:07;8.38;;;3.60;;
50363;SDS011;36272;59.400;17.982;2023-04-15T18:27:09;9.40;;;3.45;;
50363;SDS011;36272;59.400;17.982;2023-04-15T18:32:10;7.55;;;3.60;;
50363;SDS011;36272;59.400;17.982;2023-04-15T18:37:12;7.10;;;3.45;;
50363;SDS011;36272;59.400;17.982;2023-04-15T18:42:14;11.02;;;3.30;;
50363;SDS011;36272;59.400;17.982;2023-04-15T18:47:15;8.75;;;3.08;;
50363;SDS011;36272;59.400;17.982;2023-04-15T18:52:17;9.02;;;3.67;;
50363;SDS011;36272;59.400;17.982;2023-04-15T18:57:19;12.23;;;3.30;;
50363;SDS011;36272;59.400;17.982;2023-04-15T19:02:21;9.55;;;3.58;;
50363;SDS011;36272;59.400;17.982;2023-04-15T19:07:22;11.55;;;3.22;;
50363;SDS011;36272;59.400;17.982;2023-04-15T19:12:25;9.25;;;3.83;;
50363;SDS011;36272;59.400;17.982;2023-04-15T19:17:26;7.25;;;3.25;;
50363;SDS011;36272;59.400;17.982;2023-04-15T19:22:28;9.10;;;3.67;;
50363;SDS011;36272;59.400;17.982;2023-04-15T19:27:31;7.75;;;3.65;;
50363;SDS011;36272;59.400;17.982;2023-04-15T19:32:33;11.98;;;3.45;;
50363;SDS011;36272;59.400;17.982;2023-04-15T19:37:35;10.50;;;3.38;;
50363;SDS011;36272;59.400;17.982;2023-04-15T19:42:36;12.63;;;3.42;;
50363;SDS011;36272;59.400;17.982;2023-04-15T19:47:38;6.55;;;2.90;;
50363;SDS011;36272;59.400;17.982;2023-04-15T19:52:40;9.48;;;3.58;;
50363;SDS011;36272;59.400;17.982;2023-04-15T19:57:41;15.20;;;4.10;;
50363;SDS011;36272;59.400;17.982;2023-04-15T20:02:43;10.77;;;3.60;;
50363;SDS011;36272;59.400;17.982;2023-04-15T20:07:44;14.60;;;4.15;;
50363;SDS011;36272;59.400;17.982;2023-04-15T20:12:48;16.23;;;3.85;;
50363;SDS011;36272;59.400;17.982;2023-04-15T20:17:50;9.68;;;4.07;;
50363;SDS011;36272;59.400;17.982;2023-04-15T20:22:51;5.50;;;3.40;;
50363;SDS011;36272;59.400;17.982;2023-04-15T20:27:53;9.63;;;4.07;;
50363;SDS011;36272;59.400;17.982;2023-04-15T20:32:55;10.93;;;3.88;;
50363;SDS011;36272;59.400;17.982;2023-04-15T20:37:56;11.07;;;4.10;;
50363;SDS011;36272;59.400;17.982;2023-04-15T20:42:58;10.10;;;3.75;;
50363;SDS011;36272;59.400;17.982;2023-04-15T20:48:00;14.93;;;4.10;;
50363;SDS011;36272;59.400;17.982;2023-04-15T20:53:02;6.38;;;3.30;;
50363;SDS011;36272;59.400;17.982;2023-04-15T20:58:05;11.82;;;3.70;;
50363;SDS011;36272;59.400;17.982;2023-04-15T21:03:06;9.20;;;3.80;;
50363;SDS011;36272;59.400;17.982;2023-04-15T21:08:08;9.65;;;3.88;;
50363;SDS011;36272;59.400;17.982;2023-04-15T21:13:10;12.60;;;3.67;;
50363;SDS011;36272;59.400;17.982;2023-04-15T21:18:13;9.80;;;3.72;;
50363;SDS011;36272;59.400;17.982;2023-04-15T21:23:14;8.98;;;3.97;;
50363;SDS011;36272;59.400;17.982;2023-04-15T21:28:16;14.40;;;4.80;;
50363;SDS011;36272;59.400;17.982;2023-04-15T21:33:18;6.90;;;3.75;;
50363;SDS011;36272;59.400;17.982;2023-04-15T21:38:20;8.50;;;3.95;;
50363;SDS011;36272;59.400;17.982;2023-04-15T21:43:22;12.43;;;3.83;;
50363;SDS011;36272;59.400;17.982;2023-04-15T21:48:25;13.38;;;4.10;;
50363;SDS011;36272;59.400;17.982;2023-04-15T21:53:28;10.82;;;4.10;;
50363;SDS011;36272;59.400;17.982;2023-04-15T21:58:30;9.45;;;3.90;;
50363;SDS011;36272;59.400;17.982;2023-04-15T22:03:32;10.75;;;3.90;;
50363;SDS011;36272;59.400;17.982;2023-04-15T22:08:34;8.27;;;3.72;;
50363;SDS011;36272;59.400;17.982;2023-04-15T22:13:36;7.72;;;3.92;;
50363;SDS011;36272;59.400;17.982;2023-04-15T22:18:37;14.45;;;4.18;;
50363;SDS011;36272;59.400;17.982;2023-04-15T22:23:39;11.75;;;4.57;;
50363;SDS011;36272;59.400;17.982;2023-04-15T22:28:41;9.77;;;3.90;;
50363;SDS011;36272;59.400;17.982;2023-04-15T22:33:43;9.25;;;3.78;;
50363;SDS011;36272;59.400;17.982;2023-04-15T22:38:44;9.20;;;3.90;;
50363;SDS011;36272;59.400;17.982;2023-04-15T22:43:46;9.27;;;3.65;;
50363;SDS011;36272;59.400;17.982;2023-04-15T22:48:47;6.43;;;3.50;;
50363;SDS011;36272;59.400;17.982;2023-04-15T22:53:49;5.63;;;3.78;;
50363;SDS011;36272;59.400;17.982;2023-04-15T22:58:51;12.48;;;4.25;;
50363;SDS011;36272;59.400;17.982;2023-04-15T23:03:52;6.35;;;4.07;;
50363;SDS011;36272;59.400;17.982;2023-04-15T23:08:54;7.95;;;3.75;;
50363;SDS011;36272;59.400;17.982;2023-04-15T23:13:56;9.25;;;4.18;;
50363;SDS011;36272;59.400;17.982;2023-04-15T23:18:57;7.80;;;4.22;;
50363;SDS011;36272;59.400;17.982;2023-04-15T23:23:59;9.50;;;4.22;;
50363;SDS011;36272;59.400;17.982;2023-04-15T23:29:01;10.13;;;3.95;;
50363;SDS011;36272;59.400;17.982;2023-04-15T23:34:02;9.35;;;4.30;;
50363;SDS011;36272;59.400;17.982;2023-04-15T23:39:04;10.43;;;4.50;;
50363;SDS011;36272;59.400;17.982;2023-04-15T23:44:05;7.38;;;4.25;;
50363;SDS011;36272;59.400;17.982;2023-04-15T23:49:08;9.32;;;5.22;;
50363;SDS011;36272;59.400;17.982;2023-04-15T23:54:09;8.45;;;4.57;;
50363;SDS011;36272;59.400;17.982;2023-04-15T23:59:11;8.50;;;4.30;;
